createdAt,value
2019-05-30T00:01:28.926Z,10.63
2019-05-30T00:03:56.023Z,9.40
2019-05-30T00:06:22.969Z,10.37
2019-05-30T00:08:49.790Z,10.30
2019-05-30T00:11:16.197Z,10.97
2019-05-30T00:13:42.995Z,11.40
2019-05-30T00:16:09.540Z,12.33
2019-05-30T00:18:35.945Z,9.37
2019-05-30T00:21:02.926Z,9.13
2019-05-30T00:23:29.918Z,12.90
2019-05-30T00:25:57.189Z,12.77
2019-05-30T00:28:24.066Z,10.70
2019-05-30T00:30:50.538Z,11.67
2019-05-30T00:33:17.050Z,9.63
2019-05-30T00:35:43.662Z,14.20
2019-05-30T00:38:10.124Z,11.63
2019-05-30T00:40:36.645Z,10.87
2019-05-30T00:43:04.212Z,14.27
2019-05-30T00:45:31.058Z,10.20
2019-05-30T00:47:58.166Z,10.77
2019-05-30T00:50:24.624Z,12.50
2019-05-30T00:52:51.247Z,13.57
2019-05-30T00:55:17.754Z,13.57
2019-05-30T00:57:44.160Z,9.83
2019-05-30T01:00:12.222Z,10.20
2019-05-30T01:02:40.119Z,9.87
2019-05-30T01:05:08.024Z,12.27
2019-05-30T01:07:36.594Z,8.90
2019-05-30T01:10:07.767Z,10.83
2019-05-30T01:12:34.245Z,10.20
2019-05-30T01:15:01.192Z,9.53
2019-05-30T01:17:28.107Z,9.13
2019-05-30T01:19:54.610Z,10.67
2019-05-30T01:22:21.157Z,13.40
2019-05-30T01:24:47.555Z,12.37
2019-05-30T01:27:14.161Z,11.47
2019-05-30T01:29:40.834Z,9.73
2019-05-30T01:32:25.599Z,8.97
2019-05-30T01:34:52.133Z,11.27
2019-05-30T01:37:18.562Z,15.60
2019-05-30T01:39:44.960Z,11.10
2019-05-30T01:42:11.526Z,10.97
2019-05-30T01:44:37.926Z,8.50
2019-05-30T01:47:06.348Z,8.93
2019-05-30T01:49:32.999Z,10.80
2019-05-30T01:52:00.324Z,8.77
2019-05-30T01:54:26.975Z,11.20
2019-05-30T01:56:55.309Z,9.53
2019-05-30T01:59:21.682Z,7.90
2019-05-30T02:01:48.143Z,8.50
2019-05-30T02:04:14.741Z,11.33
2019-05-30T02:06:41.506Z,11.17
2019-05-30T02:09:09.231Z,10.10
2019-05-30T02:11:36.406Z,14.60
2019-05-30T02:14:03.813Z,14.47
2019-05-30T02:16:30.590Z,10.40
2019-05-30T02:18:57.208Z,16.63
2019-05-30T02:21:23.705Z,14.47
2019-05-30T02:23:50.274Z,13.77
2019-05-30T02:26:16.683Z,10.03
2019-05-30T02:28:43.097Z,14.20
2019-05-30T02:31:12.122Z,11.50
2019-05-30T02:33:38.080Z,13.33
2019-05-30T02:36:06.305Z,12.37
2019-05-30T02:38:32.840Z,13.00
2019-05-30T02:41:01.119Z,13.90
2019-05-30T02:43:27.543Z,11.93
2019-05-30T02:45:54.204Z,11.40
2019-05-30T02:48:20.709Z,10.70
2019-05-30T02:50:49.070Z,12.87
2019-05-30T02:53:15.486Z,15.07
2019-05-30T02:55:42.798Z,13.67
2019-05-30T02:58:10.558Z,14.93
2019-05-30T03:00:37.875Z,12.90
2019-05-30T03:03:06.736Z,20.97
2019-05-30T03:05:33.305Z,21.67
2019-05-30T03:08:02.076Z,21.17
2019-05-30T03:10:29.346Z,19.60
2019-05-30T03:12:56.598Z,22.00
2019-05-30T03:15:23.507Z,18.90
2019-05-30T03:17:51.857Z,16.60
2019-05-30T03:20:23.078Z,12.37
2019-05-30T03:22:47.947Z,12.93
2019-05-30T03:25:16.133Z,12.37
2019-05-30T03:27:43.045Z,12.30
2019-05-30T03:30:21.831Z,13.77
2019-05-30T03:33:04.008Z,13.43
2019-05-30T03:35:15.010Z,12.00
2019-05-30T03:37:35.503Z,11.13
2019-05-30T03:40:04.707Z,12.67
2019-05-30T03:42:31.909Z,11.13
2019-05-30T03:44:58.469Z,18.73
2019-05-30T03:47:28.696Z,12.33
2019-05-30T03:49:56.552Z,13.57
2019-05-30T03:52:23.878Z,18.43
2019-05-30T03:54:51.627Z,16.17
2019-05-30T03:57:36.160Z,19.53
2019-05-30T04:00:41.088Z,16.87
2019-05-30T04:03:30.480Z,20.93
2019-05-30T04:06:00.704Z,23.73
2019-05-30T04:08:33.763Z,13.30
2019-05-30T04:11:03.970Z,16.23
2019-05-30T04:13:39.979Z,15.47
2019-05-30T04:16:07.339Z,18.07
2019-05-30T04:18:35.240Z,19.93
2019-05-30T04:21:01.680Z,17.00
2019-05-30T04:23:28.183Z,15.33
2019-05-30T04:25:54.644Z,20.20
2019-05-30T04:28:21.053Z,16.00
2019-05-30T04:30:48.906Z,18.47
2019-05-30T04:33:26.205Z,18.63
2019-05-30T04:35:43.539Z,15.30
2019-05-30T04:38:10.568Z,15.30
2019-05-30T04:40:36.953Z,15.53
2019-05-30T04:43:03.870Z,13.83
2019-05-30T04:45:30.317Z,10.20
2019-05-30T04:47:56.716Z,10.63
2019-05-30T04:50:23.317Z,13.33
2019-05-30T04:52:49.753Z,12.77
2019-05-30T04:55:20.010Z,10.77
2019-05-30T04:57:44.736Z,12.13
2019-05-30T05:00:12.931Z,13.90
2019-05-30T05:02:39.688Z,9.33
2019-05-30T05:05:07.581Z,8.47
2019-05-30T05:07:34.150Z,11.30
2019-05-30T05:10:01.078Z,12.53
2019-05-30T05:12:27.592Z,12.00
2019-05-30T05:14:54.134Z,11.47
2019-05-30T05:17:21.020Z,13.33
2019-05-30T05:19:47.462Z,17.63
2019-05-30T05:22:14.839Z,12.33
2019-05-30T05:24:41.986Z,15.33
2019-05-30T05:27:09.981Z,15.33
2019-05-30T05:29:36.900Z,9.93
2019-05-30T05:32:03.725Z,13.83
2019-05-30T05:34:30.255Z,14.90
2019-05-30T05:36:58.612Z,10.60
2019-05-30T05:39:25.875Z,11.07
2019-05-30T05:41:52.367Z,7.07
2019-05-30T05:44:18.930Z,11.13
2019-05-30T05:46:45.332Z,7.17
2019-05-30T05:49:11.884Z,9.90
2019-05-30T05:51:38.356Z,10.87
2019-05-30T05:54:05.247Z,11.97
2019-05-30T05:56:31.649Z,13.07
2019-05-30T05:58:58.310Z,10.13
2019-05-30T06:01:25.441Z,6.13
2019-05-30T06:03:51.965Z,10.27
2019-05-30T06:06:19.203Z,15.07
2019-05-30T06:08:45.885Z,14.93
2019-05-30T06:11:12.558Z,9.17
2019-05-30T06:13:39.171Z,6.13
2019-05-30T06:16:05.582Z,5.63
2019-05-30T06:18:32.132Z,6.80
2019-05-30T06:20:58.628Z,9.27
2019-05-30T06:23:25.704Z,6.20
2019-05-30T06:25:52.398Z,8.80
2019-05-30T06:28:19.960Z,9.70
2019-05-30T06:30:46.783Z,7.37
2019-05-30T06:33:13.661Z,9.97
2019-05-30T06:35:41.298Z,7.63
2019-05-30T06:38:07.831Z,7.40
2019-05-30T06:40:34.730Z,8.60
2019-05-30T06:43:01.129Z,7.93
2019-05-30T06:45:28.370Z,8.20
2019-05-30T06:47:55.202Z,5.60
2019-05-30T06:50:22.556Z,7.17
2019-05-30T06:52:49.295Z,6.27
2019-05-30T06:55:15.903Z,5.37
2019-05-30T06:57:42.405Z,7.10
2019-05-30T07:00:09.459Z,15.00
2019-05-30T07:02:36.343Z,10.43
2019-05-30T07:05:07.809Z,7.07
2019-05-30T07:07:34.745Z,7.23
2019-05-30T07:10:06.996Z,10.53
2019-05-30T07:12:34.267Z,10.07
2019-05-30T07:15:00.817Z,8.67
2019-05-30T07:17:27.444Z,7.27
2019-05-30T07:19:54.246Z,5.53
2019-05-30T07:22:20.799Z,4.70
2019-05-30T07:24:47.211Z,5.43
2019-05-30T07:27:13.727Z,5.60
2019-05-30T07:29:40.174Z,6.27
2019-05-30T07:32:06.782Z,6.50
2019-05-30T07:34:34.272Z,7.83
2019-05-30T07:37:01.262Z,5.47
2019-05-30T07:39:32.803Z,7.93
2019-05-30T07:42:05.662Z,7.03
2019-05-30T07:44:24.578Z,10.77
2019-05-30T07:46:51.134Z,8.07
2019-05-30T07:49:18.191Z,7.10
2019-05-30T07:51:44.710Z,9.43
2019-05-30T07:54:11.146Z,11.87
2019-05-30T07:56:38.798Z,6.97
2019-05-30T07:59:05.571Z,8.97
2019-05-30T08:01:32.577Z,9.07
2019-05-30T08:03:59.553Z,9.80
2019-05-30T08:06:27.406Z,7.60
2019-05-30T08:08:54.258Z,7.97
2019-05-30T08:11:20.668Z,8.13
2019-05-30T08:13:47.072Z,9.63
2019-05-30T08:16:13.698Z,6.63
2019-05-30T08:18:40.196Z,12.07
2019-05-30T08:21:06.809Z,7.80
2019-05-30T08:23:34.256Z,6.33
2019-05-30T08:26:00.934Z,7.70
2019-05-30T08:28:28.657Z,8.70
2019-05-30T08:30:56.961Z,6.90
2019-05-30T08:33:23.860Z,8.77
2019-05-30T08:35:50.555Z,11.27
2019-05-30T08:38:17.762Z,4.73
2019-05-30T08:40:44.155Z,5.20
2019-05-30T08:43:10.671Z,6.37
2019-05-30T08:45:37.998Z,6.70
2019-05-30T08:48:05.031Z,7.37
2019-05-30T08:50:32.449Z,7.33
2019-05-30T08:52:58.837Z,4.60
2019-05-30T08:55:25.318Z,5.47
2019-05-30T08:57:51.930Z,6.47
2019-05-30T09:00:19.837Z,4.20
2019-05-30T09:02:46.921Z,4.53
2019-05-30T09:05:14.811Z,4.90
2019-05-30T09:07:42.885Z,5.23
2019-05-30T09:10:10.435Z,3.47
2019-05-30T09:12:38.565Z,5.80
2019-05-30T09:15:10.512Z,6.97
2019-05-30T09:17:38.735Z,5.03
2019-05-30T09:20:07.251Z,5.43
2019-05-30T09:22:34.214Z,3.73
2019-05-30T09:25:00.818Z,6.73
2019-05-30T09:27:27.320Z,6.30
2019-05-30T09:29:53.999Z,6.50
2019-05-30T09:32:20.602Z,7.87
2019-05-30T09:34:47.129Z,7.63
2019-05-30T09:37:13.730Z,8.37
2019-05-30T09:39:41.566Z,6.87
2019-05-30T09:42:08.487Z,5.00
2019-05-30T09:44:35.111Z,3.70
2019-05-30T09:47:01.467Z,6.60
2019-05-30T09:49:28.346Z,7.37
2019-05-30T09:51:54.891Z,8.13
2019-05-30T09:54:21.827Z,6.70
2019-05-30T09:56:48.527Z,7.58
2019-05-30T09:59:15.657Z,6.17
2019-05-30T10:01:43.068Z,9.13
2019-05-30T10:04:11.019Z,5.95
2019-05-30T10:06:38.591Z,5.95
2019-05-30T10:09:07.500Z,8.27
2019-05-30T10:11:34.010Z,10.25
2019-05-30T10:14:00.575Z,8.10
2019-05-30T10:16:27.020Z,8.03
2019-05-30T10:18:53.521Z,4.28
2019-05-30T10:21:20.078Z,10.18
2019-05-30T10:23:47.551Z,7.87
2019-05-30T10:26:14.689Z,6.33
2019-05-30T10:28:41.157Z,6.72
2019-05-30T10:31:07.791Z,4.45
2019-05-30T10:33:34.339Z,5.53
2019-05-30T10:36:00.769Z,5.87
2019-05-30T10:38:27.404Z,3.58
2019-05-30T10:40:54.105Z,5.60
2019-05-30T10:43:20.832Z,8.65
2019-05-30T10:45:47.896Z,5.47
2019-05-30T10:48:15.728Z,5.67
2019-05-30T10:50:42.432Z,4.45
2019-05-30T10:53:09.489Z,5.92
2019-05-30T10:55:36.349Z,5.62
2019-05-30T10:58:03.636Z,6.10
2019-05-30T11:00:50.872Z,5.03
2019-05-30T11:03:19.935Z,5.62
2019-05-30T11:05:50.704Z,8.00
2019-05-30T11:08:21.318Z,7.47
2019-05-30T11:10:48.524Z,7.10
2019-05-30T11:13:18.311Z,4.83
2019-05-30T11:15:45.117Z,6.92
2019-05-30T11:18:13.240Z,5.15
2019-05-30T11:20:40.626Z,4.55
2019-05-30T11:23:08.506Z,4.45
2019-05-30T11:25:35.493Z,3.90
2019-05-30T11:28:03.710Z,4.90
2019-05-30T11:30:30.858Z,3.95
2019-05-30T11:32:57.408Z,3.02
2019-05-30T11:35:24.074Z,6.33
2019-05-30T11:37:51.039Z,3.92
2019-05-30T11:40:18.653Z,4.37
2019-05-30T11:42:45.269Z,3.90
2019-05-30T11:45:13.029Z,4.85
2019-05-30T11:47:39.703Z,6.53
2019-05-30T11:50:07.025Z,5.03
2019-05-30T11:52:33.829Z,6.30
2019-05-30T11:55:00.504Z,6.47
2019-05-30T11:57:26.930Z,8.13
2019-05-30T11:59:54.223Z,4.17
2019-05-30T12:02:21.163Z,4.42
2019-05-30T12:04:48.191Z,3.45
2019-05-30T12:07:17.910Z,6.95
2019-05-30T12:09:44.651Z,4.30
2019-05-30T12:12:11.205Z,3.40
2019-05-30T12:14:37.925Z,3.25
2019-05-30T12:17:04.610Z,3.45
2019-05-30T12:19:31.419Z,4.00
2019-05-30T12:21:57.910Z,4.65
2019-05-30T12:24:24.549Z,3.50
2019-05-30T12:26:51.853Z,9.50
2019-05-30T12:29:18.598Z,3.15
2019-05-30T12:31:45.174Z,5.72
2019-05-30T12:34:12.150Z,5.55
2019-05-30T12:36:38.728Z,3.67
2019-05-30T12:39:06.421Z,5.05
2019-05-30T12:41:32.974Z,3.90
2019-05-30T12:43:59.721Z,4.97
2019-05-30T12:46:26.225Z,6.35
2019-05-30T12:48:53.258Z,3.83
2019-05-30T12:51:20.337Z,4.22
2019-05-30T12:53:47.035Z,3.10
2019-05-30T12:56:13.675Z,3.15
2019-05-30T12:58:40.381Z,2.10
2019-05-30T13:01:07.100Z,2.67
2019-05-30T13:03:35.967Z,3.33
2019-05-30T13:06:03.487Z,1.62
2019-05-30T13:08:30.158Z,3.87
2019-05-30T13:10:57.377Z,2.72
2019-05-30T13:13:24.336Z,2.33
2019-05-30T13:15:50.751Z,2.02
2019-05-30T13:18:17.419Z,2.72
2019-05-30T13:20:44.078Z,3.98
2019-05-30T13:23:10.693Z,3.40
2019-05-30T13:25:37.785Z,2.42
2019-05-30T13:28:08.118Z,3.50
2019-05-30T13:30:34.164Z,3.02
2019-05-30T13:33:03.025Z,3.25
2019-05-30T13:35:29.897Z,2.87
2019-05-30T13:37:57.086Z,4.42
2019-05-30T13:40:25.548Z,2.58
2019-05-30T13:42:52.530Z,3.70
2019-05-30T13:45:19.146Z,6.22
2019-05-30T13:47:45.749Z,2.15
2019-05-30T13:50:14.815Z,4.67
2019-05-30T13:52:43.426Z,4.15
2019-05-30T13:55:11.057Z,3.55
2019-05-30T13:57:37.617Z,2.20
2019-05-30T14:00:06.423Z,1.87
2019-05-30T14:02:33.038Z,9.53
2019-05-30T14:05:00.005Z,9.50
2019-05-30T14:07:27.036Z,2.52
2019-05-30T14:09:53.758Z,3.77
2019-05-30T14:12:20.634Z,2.20
2019-05-30T14:14:47.310Z,5.15
2019-05-30T14:17:15.317Z,4.97
2019-05-30T14:19:41.830Z,3.52
2019-05-30T14:22:09.400Z,2.65
2019-05-30T14:24:35.816Z,2.60
2019-05-30T14:27:03.450Z,4.00
2019-05-30T14:29:30.316Z,3.95
2019-05-30T14:31:56.807Z,2.35
2019-05-30T14:34:24.324Z,2.05
2019-05-30T14:36:51.039Z,7.05
2019-05-30T14:39:17.464Z,4.25
2019-05-30T14:41:44.323Z,2.02
2019-05-30T14:44:10.838Z,3.52
2019-05-30T14:46:37.410Z,2.33
2019-05-30T14:49:04.461Z,4.30
2019-05-30T14:51:31.223Z,3.05
2019-05-30T14:53:57.716Z,1.85
2019-05-30T14:56:24.170Z,2.98
2019-05-30T14:58:50.690Z,3.25
2019-05-30T15:01:17.512Z,5.45
2019-05-30T15:03:44.445Z,2.95
2019-05-30T15:06:13.335Z,4.97
2019-05-30T15:08:39.165Z,4.35
2019-05-30T15:11:05.737Z,4.62
2019-05-30T15:13:32.252Z,3.35
2019-05-30T15:15:58.669Z,3.98
2019-05-30T15:18:25.403Z,4.60
2019-05-30T15:20:52.049Z,2.77
2019-05-30T15:23:18.577Z,3.22
2019-05-30T15:25:45.440Z,1.82
2019-05-30T15:28:12.232Z,3.40
2019-05-30T15:30:39.358Z,2.42
2019-05-30T15:33:12.624Z,4.42
2019-05-30T15:35:39.494Z,4.78
2019-05-30T15:38:06.742Z,2.25
2019-05-30T15:40:33.858Z,3.22
2019-05-30T15:43:00.268Z,4.08
2019-05-30T15:45:26.791Z,2.90
2019-05-30T15:47:53.229Z,2.30
2019-05-30T15:50:19.944Z,19.98
2019-05-30T15:52:47.647Z,4.17
2019-05-30T15:55:15.282Z,8.08
2019-05-30T15:57:42.201Z,5.30
2019-05-30T16:00:12.252Z,7.35
2019-05-30T16:02:39.725Z,3.08
2019-05-30T16:05:06.687Z,3.45
2019-05-30T16:07:33.316Z,5.40
2019-05-30T16:09:59.852Z,8.53
2019-05-30T16:12:28.823Z,6.85
2019-05-30T16:14:57.692Z,4.25
2019-05-30T16:17:24.073Z,8.15
2019-05-30T16:19:54.626Z,7.83
2019-05-30T16:22:22.559Z,5.00
2019-05-30T16:24:50.115Z,7.80
2019-05-30T16:27:17.689Z,5.40
2019-05-30T16:29:44.442Z,4.33
2019-05-30T16:32:10.956Z,6.47
2019-05-30T16:34:39.300Z,5.83
2019-05-30T16:37:05.800Z,5.25
2019-05-30T16:39:34.146Z,5.70
2019-05-30T16:42:02.417Z,4.92
2019-05-30T16:44:28.853Z,6.08
2019-05-30T16:46:56.241Z,6.75
2019-05-30T16:49:24.563Z,9.15
2019-05-30T16:51:51.427Z,4.70
2019-05-30T16:54:19.183Z,3.62
2019-05-30T16:56:45.950Z,3.90
2019-05-30T16:59:13.100Z,6.92
2019-05-30T17:01:39.575Z,19.77
2019-05-30T17:04:06.137Z,68.78
2019-05-30T17:06:33.557Z,14.80
2019-05-30T17:09:00.267Z,5.62
2019-05-30T17:11:26.665Z,4.80
2019-05-30T17:13:53.381Z,8.05
2019-05-30T17:16:20.163Z,5.90
2019-05-30T17:18:46.794Z,9.65
2019-05-30T17:21:13.322Z,6.78
2019-05-30T17:23:39.899Z,8.68
2019-05-30T17:26:06.571Z,13.18
2019-05-30T17:28:33.761Z,7.22
2019-05-30T17:31:00.393Z,7.33
2019-05-30T17:33:28.173Z,9.20
2019-05-30T17:35:55.147Z,7.47
2019-05-30T17:38:22.400Z,6.83
2019-05-30T17:40:49.811Z,6.47
2019-05-30T17:43:18.822Z,5.92
2019-05-30T17:45:44.643Z,5.53
2019-05-30T17:48:16.481Z,7.83
2019-05-30T17:50:40.048Z,4.60
2019-05-30T17:53:06.719Z,5.10
2019-05-30T17:55:33.447Z,4.30
2019-05-30T17:57:59.890Z,4.85
2019-05-30T18:00:26.870Z,5.15
2019-05-30T18:02:53.840Z,6.72
2019-05-30T18:05:20.845Z,7.47
2019-05-30T18:07:48.585Z,5.50
2019-05-30T18:10:16.013Z,5.45
2019-05-30T18:12:42.623Z,5.12
2019-05-30T18:15:15.615Z,4.75
2019-05-30T18:17:43.462Z,5.72
2019-05-30T18:20:10.843Z,3.30
2019-05-30T18:22:38.744Z,7.93
2019-05-30T18:25:08.005Z,5.50
2019-05-30T18:27:34.545Z,5.62
2019-05-30T18:33:30.292Z,3.92
2019-05-30T18:35:57.159Z,4.03
2019-05-30T18:38:24.754Z,8.50
2019-05-30T18:40:51.489Z,10.23
2019-05-30T18:43:19.391Z,7.70
2019-05-30T18:45:47.815Z,5.83
2019-05-30T18:48:15.571Z,8.90
2019-05-30T18:50:42.171Z,6.23
2019-05-30T18:53:08.819Z,6.00
2019-05-30T18:55:35.494Z,5.78
2019-05-30T18:58:07.330Z,6.90
2019-05-30T19:00:33.244Z,9.40
2019-05-30T19:03:00.392Z,8.50
2019-05-30T19:05:27.010Z,8.70
2019-05-30T19:07:53.721Z,7.63
2019-05-30T19:10:20.618Z,6.67
2019-05-30T19:12:47.368Z,5.73
2019-05-30T19:15:15.292Z,5.70
2019-05-30T19:17:42.108Z,6.37
2019-05-30T19:20:10.192Z,6.80
2019-05-30T19:22:36.766Z,7.07
2019-05-30T19:25:06.139Z,10.67
2019-05-30T19:27:35.416Z,7.93
2019-05-30T19:30:01.132Z,7.93
2019-05-30T19:32:28.587Z,8.97
2019-05-30T19:34:56.333Z,7.00
2019-05-30T19:37:23.161Z,7.33
2019-05-30T19:39:50.448Z,5.80
2019-05-30T19:42:17.494Z,7.30
2019-05-30T19:44:45.671Z,7.33
2019-05-30T19:47:12.274Z,10.43
2019-05-30T19:49:39.374Z,8.90
2019-05-30T19:52:06.777Z,7.57
2019-05-30T19:54:33.441Z,8.90
2019-05-30T19:57:00.476Z,7.47
2019-05-30T19:59:27.293Z,8.70
2019-05-30T20:01:53.919Z,5.97
2019-05-30T20:04:20.774Z,7.80
2019-05-30T20:06:47.334Z,9.60
2019-05-30T20:09:13.890Z,9.13
2019-05-30T20:11:41.533Z,8.30
2019-05-30T20:14:10.082Z,7.00
2019-05-30T20:16:37.749Z,7.90
2019-05-30T20:19:05.927Z,9.40
2019-05-30T20:21:33.923Z,9.53
2019-05-30T20:24:02.322Z,6.50
2019-05-30T20:26:28.883Z,8.77
2019-05-30T20:28:55.529Z,10.53
2019-05-30T20:31:22.634Z,9.13
2019-05-30T20:33:49.411Z,8.73
2019-05-30T20:36:17.110Z,9.43
2019-05-30T20:38:43.612Z,11.83
2019-05-30T20:41:10.358Z,12.80
2019-05-30T20:43:37.043Z,9.77
2019-05-30T20:46:03.729Z,9.20
2019-05-30T20:48:30.278Z,12.40
2019-05-30T20:50:56.868Z,14.83
2019-05-30T20:53:24.615Z,15.43
2019-05-30T20:55:53.137Z,10.57
2019-05-30T20:58:19.723Z,10.53
2019-05-30T21:00:47.134Z,13.40
2019-05-30T21:03:13.745Z,12.53
2019-05-30T21:05:42.191Z,12.30
2019-05-30T21:08:08.803Z,11.03
2019-05-30T21:10:37.362Z,12.57
2019-05-30T21:13:04.687Z,11.70
2019-05-30T21:15:35.251Z,12.37
2019-05-30T21:18:05.559Z,10.60
2019-05-30T21:20:32.060Z,14.73
2019-05-30T21:23:00.193Z,13.97
2019-05-30T21:25:26.917Z,16.90
2019-05-30T21:27:53.964Z,14.33
2019-05-30T21:30:21.184Z,19.70
2019-05-30T21:32:48.603Z,18.67
2019-05-30T21:35:16.160Z,14.90
2019-05-30T21:37:43.731Z,14.93
2019-05-30T21:40:11.482Z,20.60
2019-05-30T21:42:55.759Z,20.10
2019-05-30T21:45:07.053Z,15.10
2019-05-30T21:47:34.575Z,15.10
2019-05-30T21:50:02.670Z,18.87
2019-05-30T21:52:29.408Z,13.73
2019-05-30T21:54:56.351Z,23.23
2019-05-30T21:57:23.247Z,15.17
2019-05-30T21:59:50.763Z,13.53
2019-05-30T22:02:17.553Z,20.03
2019-05-30T22:04:44.431Z,13.77
2019-05-30T22:07:11.906Z,18.93
2019-05-30T22:09:38.913Z,17.27
2019-05-30T22:12:05.609Z,14.73
2019-05-30T22:14:32.231Z,15.17
2019-05-30T22:16:58.807Z,15.40
2019-05-30T22:19:25.319Z,22.33
2019-05-30T22:21:52.366Z,14.13
2019-05-30T22:24:19.685Z,18.90
2019-05-30T22:26:46.370Z,14.10
2019-05-30T22:29:13.840Z,18.57
2019-05-30T22:31:40.461Z,18.17
2019-05-30T22:34:07.000Z,15.80
2019-05-30T22:36:33.624Z,18.60
2019-05-30T22:39:00.063Z,16.93
2019-05-30T22:41:26.736Z,18.93
2019-05-30T22:43:53.605Z,15.30
2019-05-30T22:46:20.313Z,21.03
2019-05-30T22:48:46.827Z,15.90
2019-05-30T22:51:13.277Z,15.00
2019-05-30T22:53:39.745Z,16.20
2019-05-30T22:56:07.627Z,15.73
2019-05-30T22:58:34.218Z,14.33
2019-05-30T23:01:01.837Z,18.63
2019-05-30T23:03:28.320Z,15.47
2019-05-30T23:05:54.941Z,14.80
2019-05-30T23:08:21.565Z,14.63
2019-05-30T23:10:49.552Z,16.57
2019-05-30T23:13:16.498Z,19.67
2019-05-30T23:15:43.199Z,17.67
2019-05-30T23:18:09.752Z,17.70
2019-05-30T23:20:36.394Z,18.20
2019-05-30T23:23:03.120Z,16.73
2019-05-30T23:25:29.758Z,17.53
2019-05-30T23:27:56.158Z,19.57
2019-05-30T23:30:23.231Z,16.03
2019-05-30T23:32:50.422Z,20.47
2019-05-30T23:35:17.368Z,17.97
2019-05-30T23:37:43.929Z,19.67
2019-05-30T23:40:11.551Z,20.20
2019-05-30T23:42:39.423Z,18.07
2019-05-30T23:45:07.427Z,19.87
2019-05-30T23:47:33.982Z,18.03
2019-05-30T23:50:00.769Z,18.63
2019-05-30T23:52:27.866Z,17.73
2019-05-30T23:54:56.351Z,16.37
2019-05-30T23:57:23.465Z,15.70
2019-05-30T23:59:50.621Z,16.10
